Time;durP1;ratioP1;P1;durP2;ratioP2;P2;SDS_P1;SDS_P2;PMS_P1;PMS_P2;Temp;Humidity;BMP_temperature;BMP_pressure;BME280_temperature;BME280_humidity;BME280_pressure;Samples;Min_cycle;Max_cycle;Signal;HPM_P1;HPM_P2
2022/08/20 00:01:31;;;;;;;1.03;1.03;;;;;;;18.77;89.14;101468.53;5059111;28;20029;-86
2022/08/20 00:03:56;;;;;;;1.13;1.13;;;;;;;18.79;89.55;101478.06;5058053;28;20032;-85
2022/08/20 00:06:22;;;;;;;1.70;1.60;;;;;;;18.79;89.84;101472.81;5058657;28;20029;-86
2022/08/20 00:08:48;;;;;;;1.10;1.10;;;;;;;18.79;89.64;101469.34;5066774;28;20025;-85
2022/08/20 00:11:22;;;;;;;1.17;1.17;;;;;;;18.79;89.58;101472.81;5076586;28;20021;-85
2022/08/20 00:13:51;;;;;;;1.80;1.70;;;;;;;18.79;91.42;101467.53;5058343;28;20048;-85
2022/08/20 00:16:19;;;;;;;1.90;1.80;;;;;;;18.78;91.23;101470.25;5057993;28;20120;-85
2022/08/20 00:18:45;;;;;;;1.83;1.73;;;;;;;18.75;90.03;101460.69;5058948;28;20028;-85
2022/08/20 00:21:13;;;;;;;1.73;1.63;;;;;;;18.76;89.73;101461.56;5058495;28;20044;-85
2022/08/20 00:23:40;;;;;;;1.60;1.50;;;;;;;18.78;89.86;101457.09;5058157;28;20805;-85
2022/08/20 00:26:06;;;;;;;1.40;1.30;;;;;;;18.79;90.49;101462.28;5058539;28;20060;-85
2022/08/20 00:28:32;;;;;;;1.60;1.50;;;;;;;18.78;90.60;101459.72;5058710;28;20025;-86
2022/08/20 00:30:58;;;;;;;1.60;1.50;;;;;;;18.79;89.94;101464.91;5058217;28;20112;-85
2022/08/20 00:33:24;;;;;;;1.40;1.40;;;;;;;18.79;89.83;101456.19;5058473;28;20113;-85
2022/08/20 00:35:55;;;;;;;1.45;1.35;;;;;;;18.81;89.80;101456.94;5058504;28;20431;-85
2022/08/20 00:38:21;;;;;;;1.60;1.50;;;;;;;18.82;89.58;101461.28;5078421;28;20028;-85
2022/08/20 00:40:58;;;;;;;1.55;1.45;;;;;;;18.83;89.72;101458.63;5078438;28;20472;-85
2022/08/20 00:43:45;;;;;;;1.60;1.50;;;;;;;18.85;89.64;101457.72;5058999;28;20090;-85
2022/08/20 00:46:23;;;;;;;1.38;1.27;;;;;;;18.85;89.74;101462.97;5057502;28;20020;-85
2022/08/20 00:48:51;;;;;;;1.38;1.30;;;;;;;18.85;89.71;101458.56;5058240;28;20090;-85
2022/08/20 00:51:31;;;;;;;1.42;1.33;;;;;;;18.87;89.74;101458.47;5058449;28;20063;-85
2022/08/20 00:54:14;;;;;;;1.52;1.42;;;;;;;18.87;89.36;101459.34;5056688;28;20111;-85
2022/08/20 00:56:42;;;;;;;1.58;1.48;;;;;;;18.87;89.32;101464.59;5062373;28;20024;-86
2022/08/20 00:59:13;;;;;;;1.23;1.23;;;;;;;18.86;89.56;101457.63;5073909;28;20362;-85
2022/08/20 01:01:41;;;;;;;1.27;1.25;;;;;;;18.86;90.00;101457.63;5075590;28;20077;-86
2022/08/20 01:04:06;;;;;;;1.50;1.40;;;;;;;18.85;89.34;101450.66;5074538;28;20135;-86
2022/08/20 01:06:31;;;;;;;1.50;1.40;;;;;;;18.86;89.61;101464.69;5074459;28;20524;-85
2022/08/20 01:09:00;;;;;;;1.70;1.60;;;;;;;18.86;89.54;101459.44;5074333;28;20392;-85
2022/08/20 01:11:32;;;;;;;1.60;1.50;;;;;;;18.87;89.36;101461.09;5075133;28;20403;-85
2022/08/20 01:14:22;;;;;;;1.60;1.50;;;;;;;18.89;89.80;101462.78;5074417;28;20028;-86
2022/08/20 01:16:51;;;;;;;1.50;1.40;;;;;;;18.90;89.56;101461.88;5075360;28;20044;-85
2022/08/20 01:19:20;;;;;;;1.73;1.63;;;;;;;18.88;89.53;101457.56;5074451;28;20453;-85
2022/08/20 01:21:46;;;;;;;1.15;1.15;;;;;;;18.86;89.88;101456.78;5066135;28;20056;-85
2022/08/20 01:24:35;;;;;;;1.20;1.20;;;;;;;18.89;89.66;101461.91;5058536;28;20029;-85
2022/08/20 01:27:04;;;;;;;1.33;1.30;;;;;;;18.88;90.13;101462.81;5074091;28;20027;-85
2022/08/20 01:29:38;;;;;;;1.38;1.27;;;;;;;18.88;90.15;101460.19;5075033;28;20016;-85
2022/08/20 01:32:04;;;;;;;1.45;1.35;;;;;;;18.86;90.77;101457.63;5074687;28;20384;-85
2022/08/20 01:34:30;;;;;;;1.60;1.50;;;;;;;18.83;90.39;101463.00;5073752;28;20024;-85
2022/08/20 01:36:56;;;;;;;1.70;1.60;;;;;;;18.83;90.08;101463.88;5063452;28;20029;-85
2022/08/20 01:39:34;;;;;;;1.42;1.33;;;;;;;18.84;90.73;101459.47;5066614;28;20033;-85
2022/08/20 01:42:18;;;;;;;1.23;1.17;;;;;;;18.83;90.29;101458.63;5073964;28;20021;-85
2022/08/20 01:44:45;;;;;;;1.00;1.00;;;;;;;18.81;90.48;101459.59;5074240;28;20393;-85
2022/08/20 01:47:30;;;;;;;1.00;1.00;;;;;;;18.79;90.51;101461.44;5074161;28;20024;-85
2022/08/20 01:50:05;;;;;;;1.00;1.00;;;;;;;18.77;90.31;101461.47;5073790;28;20017;-84
2022/08/20 01:53:08;;;;;;;1.75;1.65;;;;;;;18.76;90.81;101457.13;5074268;28;20439;-84
2022/08/20 01:55:33;;;;;;;1.20;1.20;;;;;;;18.74;90.54;101463.38;5058314;28;20508;-84
2022/08/20 01:57:59;;;;;;;1.30;1.30;;;;;;;18.72;90.46;101458.19;5054390;28;20032;-85
2022/08/20 02:00:25;;;;;;;1.48;1.40;;;;;;;18.71;90.26;101464.38;5053931;28;20021;-85
2022/08/20 02:02:51;;;;;;;1.30;1.30;;;;;;;18.70;90.39;101462.66;5052953;28;20025;-85
2022/08/20 02:05:17;;;;;;;1.70;1.60;;;;;;;18.71;90.30;101467.00;5054000;28;20382;-85
2022/08/20 02:07:43;;;;;;;1.40;1.30;;;;;;;18.70;90.77;101462.66;5053236;28;20100;-85
2022/08/20 02:10:11;;;;;;;1.40;1.30;;;;;;;18.68;90.50;101460.09;5067242;28;20437;-85
2022/08/20 02:12:38;;;;;;;1.10;1.10;;;;;;;18.69;90.74;101460.94;5073895;28;20017;-85
2022/08/20 02:15:07;;;;;;;1.25;1.25;;;;;;;18.67;90.85;101462.75;5073881;28;20062;-85
2022/08/20 02:17:33;;;;;;;0.90;0.90;;;;;;;18.65;90.81;101457.59;5062727;28;20033;-85
2022/08/20 02:20:07;;;;;;;1.38;1.27;;;;;;;18.63;91.05;101466.47;5052977;28;20067;-84
2022/08/20 02:22:35;;;;;;;1.48;1.38;;;;;;;18.58;91.48;101463.97;5055226;28;20032;-85
2022/08/20 02:25:01;;;;;;;1.33;1.23;;;;;;;18.55;91.37;101464.13;5072803;28;20024;-85
2022/08/20 02:27:26;;;;;;;1.13;1.10;;;;;;;18.55;91.15;101477.25;5073637;28;20032;-85
2022/08/20 02:29:52;;;;;;;1.23;1.23;;;;;;;18.54;91.72;101470.28;5073193;28;20056;-85
2022/08/20 02:32:18;;;;;;;1.10;1.10;;;;;;;18.52;91.81;101459.81;5072936;28;20037;-85
2022/08/20 02:34:44;;;;;;;1.42;1.33;;;;;;;18.51;92.48;101462.50;5073426;28;20065;-85
2022/08/20 02:37:13;;;;;;;1.47;1.37;;;;;;;18.49;91.48;101457.34;5057220;28;20033;-85
2022/08/20 02:39:39;;;;;;;2.15;1.75;;;;;;;18.48;92.33;101454.75;5053148;28;20100;-85
2022/08/20 02:42:05;;;;;;;1.55;1.42;;;;;;;18.47;91.89;101467.03;5053422;28;20032;-85
2022/08/20 02:44:31;;;;;;;1.40;1.30;;;;;;;18.44;91.48;101461.91;5068858;28;20035;-85
2022/08/20 02:46:57;;;;;;;1.10;1.00;;;;;;;18.43;91.55;101468.06;5072903;28;20456;-84
2022/08/20 02:49:22;;;;;;;1.50;1.40;;;;;;;18.44;91.86;101474.19;5072924;28;20032;-85
2022/08/20 02:51:48;;;;;;;2.23;2.03;;;;;;;18.42;92.08;101473.38;5072044;28;20086;-84
2022/08/20 02:54:25;;;;;;;3.60;2.63;;;;;;;18.40;92.10;101469.97;5072920;28;20040;-85
2022/08/20 02:56:51;;;;;;;2.20;2.00;;;;;;;18.37;91.78;101470.94;5062864;28;20039;-85
2022/08/20 02:59:17;;;;;;;3.50;2.50;;;;;;;18.35;92.58;101480.66;5051545;28;20025;-85
2022/08/20 03:01:42;;;;;;;2.63;2.25;;;;;;;18.34;92.37;101478.94;5053111;28;20393;-84
2022/08/20 03:04:08;;;;;;;2.60;2.10;;;;;;;18.34;92.77;101482.44;5052895;28;20029;-84
2022/08/20 03:06:33;;;;;;;3.10;2.20;;;;;;;18.34;92.08;101481.56;5056178;28;20047;-84
2022/08/20 03:08:59;;;;;;;3.30;2.33;;;;;;;18.33;93.18;101472.84;5073082;28;20021;-85
2022/08/20 03:11:24;;;;;;;4.53;3.00;;;;;;;18.29;93.37;101476.47;5073372;28;20020;-85
2022/08/20 03:13:51;;;;;;;6.17;3.70;;;;;;;18.26;93.52;101478.38;5071642;28;20033;-85
2022/08/20 03:16:16;;;;;;;3.20;2.90;;;;;;;18.25;92.58;101477.50;5072637;28;20027;-85
2022/08/20 03:18:44;;;;;;;5.07;3.50;;;;;;;18.25;93.01;101477.50;5072699;28;20020;-85
2022/08/20 03:21:11;;;;;;;4.25;3.20;;;;;;;18.25;93.08;101477.50;5060457;28;20057;-85
2022/08/20 03:23:37;;;;;;;2.58;2.38;;;;;;;18.25;92.79;101476.66;5052104;28;20465;-84
2022/08/20 03:26:05;;;;;;;3.15;2.60;;;;;;;18.23;92.74;101475.84;5052429;28;20496;-84
2022/08/20 03:28:31;;;;;;;4.25;3.25;;;;;;;18.24;93.43;101480.19;5052043;28;20029;-84
2022/08/20 03:30:58;;;;;;;5.40;3.40;;;;;;;18.21;93.86;101482.00;5052504;28;20040;-85
2022/08/20 03:33:24;;;;;;;3.78;3.08;;;;;;;18.20;93.32;101475.03;5051654;28;20480;-84
2022/08/20 03:35:49;;;;;;;4.82;3.58;;;;;;;18.20;93.61;101484.72;5058250;28;20099;-84
2022/08/20 03:38:16;;;;;;;3.30;2.70;;;;;;;18.17;93.14;101477.81;5072874;28;20050;-84
2022/08/20 03:40:43;;;;;;;4.20;3.17;;;;;;;18.16;93.19;101480.47;5071817;28;20029;-84
2022/08/20 03:43:08;;;;;;;6.43;4.00;;;;;;;18.16;94.31;101485.72;5116653;22;20600;-84
2022/08/20 03:45:36;;;;;;;3.77;3.10;;;;;;;18.15;93.12;101484.00;5052715;28;20040;-85
2022/08/20 03:48:06;;;;;;;2.90;2.65;;;;;;;18.14;93.23;101491.03;5051853;28;20028;-84
2022/08/20 03:50:33;;;;;;;3.55;2.80;;;;;;;18.14;92.73;101491.03;5057388;28;20419;-85
2022/08/20 03:52:58;;;;;;;2.38;2.17;;;;;;;18.15;92.83;101491.88;5072115;28;20035;-85
2022/08/20 03:55:26;;;;;;;2.83;2.47;;;;;;;18.16;92.68;101489.22;5071929;28;20021;-84
2022/08/20 03:57:55;;;;;;;2.55;2.20;;;;;;;18.17;92.98;101483.06;5072502;28;20074;-84
2022/08/20 04:00:27;;;;;;;2.45;2.25;;;;;;;18.16;93.03;101483.97;5071994;28;20020;-85
2022/08/20 04:02:54;;;;;;;3.38;2.67;;;;;;;18.17;92.86;101490.94;5071718;28;20029;-84
2022/08/20 04:05:19;;;;;;;3.28;2.50;;;;;;;18.16;93.04;101493.59;5072755;28;20441;-85
2022/08/20 04:07:45;;;;;;;2.50;2.30;;;;;;;18.16;92.81;101485.72;5072403;28;20059;-84
2022/08/20 04:10:11;;;;;;;7.10;3.97;;;;;;;18.13;94.00;101496.34;5070834;28;20025;-85
2022/08/20 04:12:40;;;;;;;;;;;;;;;18.10;93.94;101497.31;5072401;28;20384;-84
2022/08/20 04:15:15;;;;;;;7.70;4.60;;;;;;;18.06;94.36;101498.38;5068548;28;19962;-85
2022/08/20 04:17:44;;;;;;;5.70;4.20;;;;;;;18.03;94.01;101509.81;5051308;28;20021;-84
2022/08/20 04:20:13;;;;;;;6.72;4.40;;;;;;;18.00;93.90;101511.69;5070502;28;20042;-85
2022/08/20 04:22:39;;;;;;;4.95;3.70;;;;;;;17.95;94.02;101508.38;5070499;28;20691;-84
2022/08/20 04:25:07;;;;;;;4.60;3.50;;;;;;;17.91;93.53;101516.34;5071886;28;20107;-84
2022/08/20 04:27:35;;;;;;;3.38;2.88;;;;;;;17.90;93.31;101509.38;5063728;28;20032;-84
2022/08/20 04:30:02;;;;;;;4.68;3.25;;;;;;;17.89;92.98;101512.06;5053082;28;20099;-84
2022/08/20 04:32:28;;;;;;;3.58;2.92;;;;;;;17.90;93.08;101513.78;5055865;28;20035;-84
2022/08/20 04:34:53;;;;;;;3.83;3.10;;;;;;;17.91;93.49;101516.34;5055709;28;20025;-84
2022/08/20 04:37:20;;;;;;;3.60;2.70;;;;;;;17.90;93.03;101514.63;5054925;28;20279;-85
2022/08/20 04:40:52;;;;;;;2.60;2.40;;;;;;;17.86;92.98;101515.63;5055850;28;20111;-84
2022/08/20 04:42:31;;;;;;;3.88;2.97;;;;;;;17.83;93.68;101520.13;5055557;28;20048;-85
2022/08/20 04:44:57;;;;;;;9.50;5.13;;;;;;;17.75;94.03;101534.41;5054692;28;20032;-84
2022/08/20 04:47:22;;;;;;;6.83;4.33;;;;;;;17.69;93.31;101539.84;5055745;28;20032;-84
2022/08/20 04:49:47;;;;;;;6.33;4.20;;;;;;;17.65;93.04;101533.00;5055670;28;20032;-84
2022/08/20 04:52:12;;;;;;;4.17;3.00;;;;;;;17.65;93.22;101540.00;5054490;28;20504;-84
2022/08/20 04:54:38;;;;;;;6.40;3.57;;;;;;;17.62;93.37;101538.34;5055305;28;20029;-84
2022/08/20 04:57:03;;;;;;;5.03;3.30;;;;;;;17.60;93.60;101542.78;5055544;28;20028;-84
2022/08/20 04:59:28;;;;;;;8.40;3.67;;;;;;;17.61;94.15;101552.38;5054746;28;20032;-85
2022/08/20 05:01:53;;;;;;;4.63;3.30;;;;;;;17.58;93.24;101548.09;5055236;28;20021;-84
2022/08/20 05:04:19;;;;;;;4.83;3.20;;;;;;;17.56;93.49;101555.16;5055055;28;20029;-85
2022/08/20 05:06:44;;;;;;;3.43;2.77;;;;;;;17.57;93.60;101562.13;5125889;22;20053;-84
2022/08/20 05:09:09;;;;;;;6.23;3.80;;;;;;;17.53;94.04;101560.50;5074449;28;20025;-84
2022/08/20 05:11:34;;;;;;;3.73;3.10;;;;;;;17.52;93.41;101563.19;5074928;28;20518;-84
2022/08/20 05:14:00;;;;;;;4.53;2.90;;;;;;;17.53;93.16;101557.88;5072581;28;20031;-84
2022/08/20 05:16:25;;;;;;;5.07;3.23;;;;;;;17.52;93.66;101557.94;5071025;28;20362;-84
2022/08/20 05:18:51;;;;;;;3.70;2.70;;;;;;;17.53;93.13;101563.13;5054313;28;20104;-83
2022/08/20 05:21:16;;;;;;;2.60;2.40;;;;;;;17.55;93.31;101563.09;5054931;28;20036;-84
2022/08/20 05:23:41;;;;;;;3.50;3.10;;;;;;;17.55;93.10;101561.31;5054695;28;20385;-84
2022/08/20 05:26:08;;;;;;;5.47;3.10;;;;;;;17.54;93.48;101559.59;5054263;28;20043;-84
2022/08/20 05:28:37;;;;;;;3.70;2.90;;;;;;;17.54;93.22;101556.97;5056000;28;20046;-84
2022/08/20 05:31:06;;;;;;;3.30;2.60;;;;;;;17.54;92.91;101561.38;5054386;28;20025;-84
2022/08/20 05:33:31;;;;;;;2.90;2.45;;;;;;;17.58;93.05;101565.59;5054435;28;20526;-84
2022/08/20 05:35:57;;;;;;;5.07;3.20;;;;;;;17.57;93.13;101567.38;5054423;28;20021;-84
2022/08/20 05:38:25;;;;;;;3.57;2.90;;;;;;;17.59;92.73;101577.81;5054573;28;20037;-84
2022/08/20 05:41:09;;;;;;;4.22;2.50;;;;;;;17.61;92.86;101570.75;5053171;28;20032;-84
2022/08/20 05:43:34;;;;;;;3.15;2.67;;;;;;;17.65;92.91;101571.50;5053227;28;20049;-84
2022/08/20 05:46:00;;;;;;;3.70;2.70;;;;;;;17.68;92.95;101571.41;5057827;28;20491;-84
2022/08/20 05:48:25;;;;;;;4.13;2.90;;;;;;;17.71;92.98;101581.81;5073666;28;20112;-84
2022/08/20 05:51:04;;;;;;;3.77;3.00;;;;;;;17.72;92.59;101576.50;5074350;28;20103;-84
2022/08/20 05:53:29;;;;;;;4.28;3.10;;;;;;;17.71;93.10;101580.03;5074471;28;20469;-84
2022/08/20 05:55:54;;;;;;;4.40;3.23;;;;;;;17.75;93.45;101578.16;5073447;28;20070;-84
2022/08/20 05:58:25;;;;;;;3.83;2.80;;;;;;;17.73;92.82;101582.63;5073842;28;20044;-85
2022/08/20 06:00:52;;;;;;;3.22;2.65;;;;;;;17.74;92.93;101584.31;5068159;28;20025;-85
2022/08/20 06:06:03;;;;;;;3.20;2.65;;;;;;;17.77;93.12;101597.34;5073830;28;20114;-82
2022/08/20 06:08:28;;;;;;;;;;;;;;;17.78;92.85;101592.97;5073895;28;20017;-82
2022/08/20 06:10:54;;;;;;;4.18;2.97;;;;;;;17.78;93.47;101588.56;5074036;28;19954;-85
2022/08/20 06:13:19;;;;;;;6.40;3.83;;;;;;;17.77;93.18;101586.00;5071017;28;20468;-84
2022/08/20 06:15:45;;;;;;;5.83;3.70;;;;;;;17.77;93.45;101591.25;5073107;28;20810;-85
2022/08/20 06:18:10;;;;;;;4.40;3.30;;;;;;;17.77;93.75;101596.50;5073201;28;20027;-85
2022/08/20 06:20:37;;;;;;;5.97;3.93;;;;;;;17.75;93.27;101588.66;5073746;28;20108;-85
2022/08/20 06:23:02;;;;;;;;;;;;;;;17.79;93.85;101590.28;5073297;28;20017;-84
2022/08/20 06:25:28;;;;;;;9.38;5.45;;;;;;;17.78;93.38;101590.34;5073646;28;20371;-85
2022/08/20 06:27:53;;;;;;;7.77;4.43;;;;;;;17.82;93.06;101591.94;5073557;28;20047;-84
2022/08/20 06:30:19;;;;;;;8.83;5.10;;;;;;;17.90;93.31;101588.16;5072865;28;20021;-85
2022/08/20 06:32:44;;;;;;;5.80;4.10;;;;;;;18.00;93.30;101587.84;5073124;28;20020;-84
2022/08/20 06:35:10;;;;;;;6.47;4.43;;;;;;;18.08;94.05;101592.84;5073522;28;20028;-85
2022/08/20 06:37:38;;;;;;;5.40;3.70;;;;;;;18.10;93.32;101591.03;5073083;28;20047;-85
2022/08/20 06:40:08;;;;;;;5.28;3.40;;;;;;;18.14;94.00;101595.25;5071270;28;20039;-84
2022/08/20 06:42:33;;;;;;;11.45;5.78;;;;;;;18.14;93.10;101590.88;5072993;28;20132;-85
2022/08/20 06:45:02;;;;;;;7.33;4.87;;;;;;;18.14;92.79;101595.25;5072720;28;20179;-85
2022/08/20 06:47:27;;;;;;;6.78;4.30;;;;;;;18.18;92.66;101604.75;5073512;28;20275;-85
2022/08/20 06:49:52;;;;;;;6.83;3.97;;;;;;;18.21;92.82;101597.59;5072931;28;20066;-83
2022/08/20 06:52:17;;;;;;;5.53;3.80;;;;;;;18.29;93.15;101589.47;5071813;28;20071;-82
2022/08/20 06:54:44;;;;;;;5.87;3.67;;;;;;;18.37;92.74;101597.06;5073522;28;20521;-84
2022/08/20 06:57:09;;;;;;;;;;;;;;;18.46;92.47;101595.88;5073427;28;20404;-83
2022/08/20 06:59:35;;;;;;;7.80;4.80;;;;;;;18.50;93.00;101592.22;5069687;28;19912;-83
2022/08/20 07:02:01;;;;;;;11.97;6.27;;;;;;;18.51;93.59;101589.56;5073092;28;20051;-87
2022/08/20 07:04:36;;;;;;;7.32;4.50;;;;;;;18.52;93.12;101598.28;5060378;28;20549;-88
2022/08/20 07:07:04;;;;;;;6.53;4.10;;;;;;;18.53;92.52;101589.47;5053171;28;20120;-86
2022/08/20 07:09:29;;;;;;;6.50;4.22;;;;;;;18.57;92.93;101590.22;5051921;28;20095;-86
2022/08/20 07:11:55;;;;;;;5.23;3.60;;;;;;;18.56;92.02;101602.53;5051182;28;20128;-85
2022/08/20 07:14:36;;;;;;;4.30;3.13;;;;;;;18.56;92.70;101592.00;5052123;28;20029;-86
2022/08/20 07:17:02;;;;;;;4.97;3.50;;;;;;;18.60;92.77;101605.88;5051850;28;20102;-83
2022/08/20 07:19:27;;;;;;;;;;;;;;;18.64;92.45;101602.22;5052099;28;20036;-85
2022/08/20 07:22:08;;;;;;;4.33;3.10;;;;;;;18.69;91.97;101600.28;5052798;28;19913;-85
2022/08/20 07:24:33;;;;;;;5.80;3.65;;;;;;;18.78;92.40;101602.56;5052867;28;20027;-85
2022/08/20 07:27:21;;;;;;;4.10;3.07;;;;;;;18.82;92.06;101609.44;5051560;28;20025;-84
2022/08/20 07:32:59;;;;;;;5.97;3.70;;;;;;;18.85;91.61;101618.13;5053137;28;20047;-84
2022/08/20 07:35:25;;;;;;;5.88;3.85;;;;;;;18.86;91.87;101619.84;5052545;28;20035;-85
2022/08/20 07:37:53;;;;;;;5.53;3.75;;;;;;;18.91;92.65;101626.66;5052363;28;20092;-84
2022/08/20 07:40:36;;;;;;;5.60;4.00;;;;;;;19.06;92.62;101630.47;5042534;28;20075;-85
2022/08/20 07:43:02;;;;;;;6.93;4.25;;;;;;;19.35;92.46;101628.47;5052385;28;20027;-84
2022/08/20 07:45:43;;;;;;;7.00;4.17;;;;;;;19.63;91.83;101632.63;5052235;28;20025;-84
2022/08/20 07:48:11;;;;;;;5.40;3.60;;;;;;;19.78;90.96;101636.41;5051548;28;20556;-83
2022/08/20 07:50:37;;;;;;;4.88;3.50;;;;;;;19.80;89.99;101631.06;5051707;28;20037;-83
2022/08/20 07:53:03;;;;;;;4.93;3.50;;;;;;;19.81;89.94;101631.03;5064432;28;20048;-83
2022/08/20 07:55:41;;;;;;;8.70;4.90;;;;;;;19.86;89.33;101638.75;5070888;28;20100;-83
2022/08/20 07:58:10;;;;;;;13.95;7.10;;;;;;;19.79;88.15;101638.13;5070304;28;20469;-84
2022/08/20 08:00:36;;;;;;;7.90;5.43;;;;;;;19.81;87.56;101645.94;5066224;28;20027;-83
2022/08/20 08:03:02;;;;;;;8.70;5.13;;;;;;;19.96;88.81;101652.38;5071081;28;20119;-83
2022/08/20 08:05:29;;;;;;;11.55;6.25;;;;;;;20.10;87.18;101652.66;5076323;28;20540;-83
2022/08/20 08:07:54;;;;;;;;;;;;;;;20.17;87.77;101653.25;5075744;28;20358;-82
2022/08/20 08:10:22;;;;;;;8.32;5.13;;;;;;;20.11;87.50;101657.03;5076485;28;19935;-85
2022/08/20 08:12:50;;;;;;;7.15;4.40;;;;;;;20.06;86.94;101651.06;5075939;28;20028;-88
2022/08/20 08:15:22;;;;;;;5.50;3.90;;;;;;;20.14;87.86;101659.53;5075716;28;20070;-87
2022/08/20 08:17:51;;;;;;;4.22;3.13;;;;;;;20.31;87.87;101661.44;5076542;28;20024;-85
2022/08/20 08:20:21;;;;;;;4.10;3.17;;;;;;;20.55;87.64;101655.97;5075305;28;20029;-85
2022/08/20 08:22:46;;;;;;;3.60;2.70;;;;;;;20.81;87.54;101665.41;5075141;28;20396;-85
2022/08/20 08:25:15;;;;;;;3.70;3.20;;;;;;;20.90;85.42;101663.28;5075935;28;20115;-85
2022/08/20 08:27:41;;;;;;;3.15;2.50;;;;;;;20.74;85.26;101663.97;5075674;28;20036;-85
2022/08/20 08:30:08;;;;;;;2.95;2.65;;;;;;;20.64;85.58;101668.78;5070693;28;20044;-85
2022/08/20 08:32:35;;;;;;;2.63;2.42;;;;;;;20.71;85.87;101669.38;5076205;28;20036;-86
2022/08/20 08:35:07;;;;;;;2.60;2.40;;;;;;;20.86;82.26;101657.28;5075580;28;20025;-83
2022/08/20 08:37:34;;;;;;;7.15;4.47;;;;;;;20.95;79.65;101656.00;5074895;28;20422;-83
2022/08/20 08:40:00;;;;;;;7.03;4.40;;;;;;;21.05;80.73;101661.72;5075109;28;20520;-83
2022/08/20 08:42:56;;;;;;;5.22;3.63;;;;;;;21.08;82.28;101661.56;5067459;28;20503;-84
2022/08/20 08:45:22;;;;;;;4.25;3.15;;;;;;;21.05;83.59;101669.63;5075927;28;20041;-83
2022/08/20 08:47:48;;;;;;;4.70;3.10;;;;;;;21.16;82.49;101674.41;5075611;28;20131;-84
2022/08/20 08:50:26;;;;;;;6.00;3.10;;;;;;;21.29;82.36;101675.53;5074884;28;20055;-83
2022/08/20 08:52:59;;;;;;;5.07;3.58;;;;;;;21.39;79.79;101676.78;5075508;28;20020;-83
2022/08/20 08:55:26;;;;;;;3.75;3.00;;;;;;;21.48;81.12;101680.78;5074187;28;20473;-82
2022/08/20 08:57:55;;;;;;;3.13;2.78;;;;;;;21.64;79.94;101670.38;5074547;28;20057;-83
2022/08/20 09:00:22;;;;;;;3.15;2.83;;;;;;;21.78;81.17;101685.56;5064410;28;20033;-83
2022/08/20 09:03:16;;;;;;;5.10;3.25;;;;;;;21.72;74.95;101680.56;5055595;28;20056;-83
2022/08/20 09:05:51;;;;;;;9.88;5.20;;;;;;;21.50;76.16;101683.38;5046434;28;20041;-84
2022/08/20 09:08:22;;;;;;;6.22;4.00;;;;;;;21.56;79.24;101681.25;5055392;28;20075;-84
2022/08/20 09:10:47;;;;;;;5.63;3.33;;;;;;;21.72;79.38;101685.84;5055435;28;20094;-87
2022/08/20 09:13:13;;;;;;;3.37;2.77;;;;;;;21.88;78.60;101688.56;5070544;28;20052;-86
2022/08/20 09:15:38;;;;;;;3.77;2.83;;;;;;;22.01;79.32;101688.84;5074703;28;20433;-85
2022/08/20 09:18:03;;;;;;;3.77;2.90;;;;;;;22.17;79.02;101689.75;5074518;28;20025;-85
2022/08/20 09:20:28;;;;;;;3.90;2.80;;;;;;;22.34;77.76;101690.69;5075199;28;20077;-84
2022/08/20 09:22:54;;;;;;;11.33;5.83;;;;;;;22.28;73.29;101691.88;5075191;28;20461;-85
2022/08/20 09:25:20;;;;;;;6.65;4.30;;;;;;;22.26;76.05;101690.22;5074467;28;20484;-83
2022/08/20 09:27:46;;;;;;;7.05;4.30;;;;;;;22.32;73.71;101689.91;5073549;28;20420;-88
2022/08/20 09:30:13;;;;;;;5.43;3.53;;;;;;;22.37;76.09;101687.88;5075523;28;20029;-89
2022/08/20 09:32:38;;;;;;;7.13;4.15;;;;;;;22.41;70.77;101684.19;5074793;28;20023;-86
2022/08/20 09:35:04;;;;;;;5.23;3.70;;;;;;;22.49;74.74;101686.44;5074685;28;20384;-88
2022/08/20 09:37:31;;;;;;;4.95;3.47;;;;;;;22.62;70.68;101689.28;5075246;28;20035;-89
2022/08/20 09:39:57;;;;;;;8.85;4.00;;;;;;;22.64;73.09;101685.59;5074628;28;20477;-88
2022/08/20 09:42:25;;;;;;;4.00;3.15;;;;;;;22.63;71.16;101683.03;5074988;28;20054;-89
2022/08/20 09:44:51;;;;;;;3.88;2.70;;;;;;;22.48;73.55;101682.06;5074337;28;20385;-88
2022/08/20 09:47:16;;;;;;;2.90;2.60;;;;;;;22.54;74.30;101686.19;5074829;28;20021;-87
2022/08/20 09:49:43;;;;;;;3.25;2.80;;;;;;;22.67;75.04;101677.50;5074896;28;20039;-87
2022/08/20 09:52:10;;;;;;;3.45;2.38;;;;;;;22.82;73.33;101685.56;5074323;28;20033;-85
2022/08/20 09:54:38;;;;;;;2.63;2.30;;;;;;;22.96;68.83;101677.75;5072248;28;20029;-85
2022/08/20 09:57:08;;;;;;;5.35;3.40;;;;;;;22.90;66.42;101675.41;5074259;28;20362;-87
2022/08/20 09:59:34;;;;;;;4.22;2.95;;;;;;;22.97;70.75;101683.88;5054699;28;20401;-85
2022/08/20 10:01:59;;;;;;;3.53;2.50;;;;;;;23.06;70.32;101686.00;5053440;28;20041;-85
2022/08/20 10:04:25;;;;;;;4.53;2.70;;;;;;;23.13;71.00;101681.25;5054357;28;20021;-85
2022/08/20 10:06:50;;;;;;;4.53;2.73;;;;;;;23.24;69.71;101686.81;5053627;28;20143;-84
2022/08/20 10:09:15;;;;;;;4.27;2.60;;;;;;;23.32;68.86;101680.22;5053674;28;20032;-84
2022/08/20 10:11:41;;;;;;;5.23;2.67;;;;;;;23.36;65.43;101679.13;5054375;28;20421;-84
2022/08/20 10:14:08;;;;;;;4.77;2.93;;;;;;;23.37;65.88;101678.19;5054114;28;20021;-83
2022/08/20 10:16:34;;;;;;;3.30;2.33;;;;;;;23.49;67.01;101677.50;5073428;28;20464;-81
2022/08/20 10:19:00;;;;;;;2.40;2.20;;;;;;;23.63;67.12;101678.50;5073666;28;20379;-84
2022/08/20 10:21:25;;;;;;;2.00;1.90;;;;;;;23.81;66.58;101673.94;5073077;28;20038;-82
2022/08/20 10:23:50;;;;;;;2.33;2.10;;;;;;;23.96;66.27;101677.53;5073383;28;20031;-82
2022/08/20 10:26:16;;;;;;;2.07;1.90;;;;;;;24.10;66.48;101682.84;5071688;28;20039;-83
2022/08/20 10:28:41;;;;;;;2.05;1.80;;;;;;;24.24;65.63;101681.16;5072459;28;20393;-83
2022/08/20 10:31:09;;;;;;;2.33;2.13;;;;;;;24.39;64.55;101685.56;5073031;28;20036;-83
2022/08/20 10:33:35;;;;;;;4.65;2.80;;;;;;;24.48;57.56;101679.69;5073701;28;20033;-84
2022/08/20 10:36:12;;;;;;;5.40;2.67;;;;;;;24.39;61.15;101682.03;5070875;28;20028;-84
2022/08/20 10:38:37;;;;;;;4.30;2.40;;;;;;;24.19;63.24;101690.28;5073248;28;20040;-82
2022/08/20 10:41:03;;;;;;;3.58;2.30;;;;;;;23.88;59.21;101681.44;5073377;28;20033;-82
2022/08/20 10:43:28;;;;;;;3.03;2.00;;;;;;;23.63;64.16;101682.00;5072268;28;20492;-82
2022/08/20 10:45:53;;;;;;;1.73;1.63;;;;;;;23.44;65.46;101683.06;5073349;28;20278;-82
2022/08/20 10:48:20;;;;;;;2.13;1.70;;;;;;;23.28;59.71;101700.75;5073435;28;20376;-82
2022/08/20 10:50:45;;;;;;;2.17;1.70;;;;;;;23.14;65.28;101691.72;5072736;28;20028;-82
2022/08/20 10:53:11;;;;;;;2.67;1.73;;;;;;;23.16;63.46;101693.44;5073165;28;20534;-82
2022/08/20 10:55:37;;;;;;;1.70;1.60;;;;;;;23.37;63.69;101686.97;5069896;28;20141;-82
2022/08/20 10:58:05;;;;;;;1.70;1.60;;;;;;;23.59;63.36;101686.63;5052558;28;20039;-82
2022/08/20 11:00:30;;;;;;;1.50;1.40;;;;;;;23.84;64.46;101679.06;5053429;28;20043;-83
2022/08/20 11:02:56;;;;;;;3.70;1.87;;;;;;;24.13;61.15;101684.47;5053126;28;20021;-83
2022/08/20 11:05:21;;;;;;;3.53;1.63;;;;;;;24.41;62.38;101686.31;5053270;28;20307;-83
2022/08/20 11:07:47;;;;;;;4.13;1.90;;;;;;;24.66;58.16;101687.44;5053135;28;20029;-83
2022/08/20 11:10:12;;;;;;;2.50;1.70;;;;;;;24.59;61.59;101687.00;5052997;28;20369;-82
2022/08/20 11:12:37;;;;;;;1.40;1.30;;;;;;;24.45;60.64;101692.28;5052258;28;20031;-83
2022/08/20 11:15:04;;;;;;;2.60;1.50;;;;;;;24.25;60.43;101688.19;5053975;28;20096;-83
2022/08/20 11:17:32;;;;;;;2.63;1.70;;;;;;;24.17;58.16;101686.00;5052239;28;20056;-82
2022/08/20 11:19:59;;;;;;;2.13;1.70;;;;;;;24.30;59.34;101686.13;5052683;28;20435;-83
2022/08/20 11:22:25;;;;;;;1.50;1.30;;;;;;;24.46;58.82;101680.75;5053077;28;20396;-83
2022/08/20 11:24:51;;;;;;;;;;;;;;;24.54;59.79;101681.13;5052188;28;20112;-83
2022/08/20 11:27:29;;;;;;;1.48;1.38;;;;;;;24.71;59.35;101685.41;5053237;28;19956;-83
2022/08/20 11:29:54;;;;;;;1.48;1.38;;;;;;;24.71;60.24;101684.56;5052561;28;20389;-82
2022/08/20 11:32:20;;;;;;;2.47;1.40;;;;;;;24.58;56.10;101680.00;5052127;28;20048;-83
2022/08/20 11:34:45;;;;;;;1.30;1.20;;;;;;;24.68;58.12;101682.91;5052993;28;20024;-83
2022/08/20 11:37:12;;;;;;;2.00;1.50;;;;;;;24.92;59.25;101677.91;5052655;28;20041;-83